Maryland METAR Reports


Distance/Direction noted is from Ellicott City, MD as the crow flies

KCBE - Cumberland - 118 miles WNW
Updated: Thu, 07/24/2014 7:58 AM
Overcast
Overcast
 Wind from N
Wind: N 7 mph
Temperature: 70°F
Dew Point: 61°F
Humidity: 73%
Barometer: 30.00 inHg
Clouds: Overcast
Visibility: 10 miles
Cloud Details: Overcast 4500 ft
2014/07/24 11:58 KCBE 241158Z AUTO 01006KT 10SM OVC045 21/16 A3000 RMK AO1
KHGR - Hagerstown - 57 miles NW
Updated: Thu, 07/24/2014 7:53 AM
Overcast
Overcast
 Wind from NNE
Wind: NNE 7 mph
Temperature: 70°F
Dew Point: 61°F
Humidity: 73%
Barometer: 29.93 inHg
Clouds: Overcast
Visibility: 10 miles
Cloud Details: Overcast 2400 ft
2014/07/24 11:53 KHGR 241153Z 02006KT 10SM OVC024 21/16 A2993 RMK AO2 SLP139 60004 70004 T02110156 10233 20206 53009
 
KFDK - Frederick - 34 miles NW
Updated: Thu, 07/24/2014 7:45 AM
Overcast
Overcast
 Wind from NNE
Wind: NNE 5 mph
Temperature: 70°F
Dew Point: 66°F
Humidity: 88%
Barometer: 29.94 inHg
Clouds: Overcast
Visibility: 10 miles
Cloud Details: Overcast 3100 ft
2014/07/24 11:45 KFDK 241145Z 03004KT 10SM OVC031 21/19 A2994
KGAI - Gaithersburg - 26 miles SW
Updated: Thu, 07/24/2014 8:15 AM
Overcast
Overcast
 Wind from calm
Wind: Calm
Temperature: 68°F
Dew Point: 64°F
Humidity: 88%
Barometer: 29.96 inHg
Clouds: Overcast
Visibility: 10 miles
Cloud Details: Overcast 3000 ft
2014/07/24 12:15 KGAI 241215Z AUTO 00000KT 10SM OVC030 20/18 A2996 RMK AO1
 
KBWI - BWI Airport - 15 miles SE
Updated: Thu, 07/24/2014 8:01 AM
Overcast
Overcast
 Wind from calm
Wind: Calm
Temperature: 73°F
Dew Point: 68°F
Humidity: 83%
Barometer: 29.89 inHg
Clouds: Overcast
Visibility: 10 miles
Cloud Details: Few Clouds 1700 ft
Mostly Cloudy 2600 ft
Overcast 5000 ft
2014/07/24 12:01 KBWI 241201Z 00000KT 10SM FEW017 BKN026 OVC050 23/20 A2989 RMK AO2
KNAK - Annapolis - 32 miles SSE
Updated: Thu, 07/24/2014 8:11 AM
Overcast
Overcast
 Wind from N
Wind: N 10 mph
Temperature: 73°F
Dew Point: 66°F
Humidity: 78%
Barometer: 29.88 inHg
Clouds: Overcast
Visibility: 10 miles
Cloud Details: Partly Cloudy 2400 ft
Overcast 3100 ft
2014/07/24 12:11 KNAK 241211Z AUTO 35009KT 10SM SCT024 OVC031 23/19 A2988 RMK AO2 T02330194
 
KESN - Easton - 63 miles SE
Updated: Thu, 07/24/2014 7:50 AM
Overcast
Overcast
 Wind from NNE
Wind: NNE 7 mph
Temperature: 73°F
Dew Point: 73°F
Humidity: 100%
Barometer: 29.90 inHg
Clouds: Overcast
Visibility: 7 miles
Cloud Details: Partly Cloudy 2000 ft
Partly Cloudy 6000 ft
Overcast 12000 ft
2014/07/24 11:50 KESN 241150Z 03006KT 7SM SCT020 SCT060 OVC120 23/23 A2990
KSBY - Salisbury - 112 miles SE
Updated: Tue, 07/15/2014 5:28 PM
NOT Current
Heavy rain, Mostly cloudy
Heavy rain, Mostly cloudy
 Wind from SSW
Wind: SSW 14 mph, Gust: 37 mph
Temperature: 81°F
Heat Index: 86°F
Dew Point: 73°F
Humidity: 79%
Barometer: 29.78 inHg
Summary: Heavy Rain
Clouds: Mostly Cloudy
Visibility: 1/2 mile
Cloud Details: Few Clouds 600 ft
Partly Cloudy 1600 ft
Mostly Cloudy 2800 ft
2014/07/15 21:28 KSBY 152128Z AUTO 20012G32KT 1/2SM +RA FEW006 SCT016 BKN028 27/23 A2978 RMK AO2 PK WND 21032/2123 RAB26 P0028 TSNO